Portada
METAR-TAF:

METAR-TAF

Aeroports :

Ōita, Japó

latitud: 33-29N, longitud: 131-44E, altitud: 5 m

Observació

L'informe es va fer fa 34 minuts, a les 03:00 UTC
Vent 8 kt del Nord-Est
Temperatura 20°C
Humitat 68%
Pressió 1019 hPa
Visibilitat 10 km o més
Escasses núvols a una alçada de 3000 ft

METAR: RJFO 270300Z 04008KT 9999 FEW030 20/14 Q1019

Hora: 12:34 (03:34 UTC)

Pronòstic

L'informe es va fer fa 4 hores i 28 minuts, a les 23:06 UTC
Pronòstic vàlid del 27 a les 00 UTC al 28 a les 06 UTC
Vent 8 kt del Nord/Nord-Est
Visibilitat 10 km o més
Escasses núvols a una alçada de 3000 ft
Evolucionant progressivament
l' 27 a les 12 UTC al 27 a les 15 UTC
Vent 5 kt del Oest
Evolucionant progressivament
l' 27 a les 21 UTC al 28 a les 00 UTC
Vent 3 kt del Nord-Est

TAF: RJFO 262306Z 2700/2806 03008KT 9999 FEW030 BECMG 2712/2715 26005KT BECMG 2721/2800 05003KT

Observacions i pronòstics meteorològics de més de 4000 aeroports (METAR i TAF).

Les estacions disponibles són els punts grocs i vermells al mapa.

Posi el ratolí al punt desitjat per veure el nom de l'estació.

Feu clic per veure les observacions i els pronòstics meteorològics.

Per canviar el mapa: feu clic els botons verds amb una creu de color negre per apropar; al botó verd amb un guió per allunyar la imatge; o en les fletxes verdes per a mapes adjacents.


METAR-TAF: